SIPK1: Pottawatomie Creek nr Scipio 1SE

                                SHEF ID:       SIPK1     POTTAWATOMIE C NR SCIPIO, KS
STATION TYPE:

PRECIP STAGE RIV-FLOW BAT-LOAD
in ft cfs volt
Ccp-Rev Ccp-Rev Ccp-Rev Ccp-Rev
(America/Chicago)
06/28 00:00 ---- 7.62 742 12.73
06/28 01:00 ---- 7.50 722 12.73
06/28 02:00 ---- 7.38 702 12.73
06/28 03:00 ---- 7.28 685 12.73
06/28 04:00 ---- 7.16 666 12.65
06/28 05:00 ---- 7.06 650 12.65
06/28 06:00 ---- 6.95 632 12.65
06/28 07:00 ---- 6.86 618 12.65
06/28 08:00 ---- 6.75 601 12.65
06/28 09:00 ---- 6.67 588 12.65
06/28 10:00 ---- 6.58 574 13.21
06/28 11:00 ---- 6.49 561 13.60
06/28 12:00 ---- 6.40 547 13.68
06/28 13:00 ---- 6.30 532 13.68
06/28 14:00 ---- 6.22 520 13.68
06/28 15:00 ---- 6.15 510 13.68
06/28 16:00 ---- 6.05 495 13.53
06/28 17:00 ---- 6.01 490 13.44
06/28 18:00 ---- 5.91 475 13.44
06/28 19:00 ---- 5.86 468 13.29
06/28 20:00 ---- 5.77 455 13.05
06/28 21:00 ---- 5.69 444 12.81
06/28 22:00 ---- 5.62 435 12.81
06/28 23:00 ---- 5.56 426 12.81
Data processed at Mon 29Jun2026 04:48 GMT

NOTICE: If you are parsing this page

Please convert to using our Data API. Starting early 2026 we will be migrating to: https://water.usace.army.mil with modern pages rendered in JavaScript. When this migration completes you will no longer be able to scrape this page! CWMSDataAPI (CDA)

Timeseries IDs (TSIDs)

TSIDs used from left to right in the data table
SCIP.Precip-Inc.Total.1Hour.1Hour.Ccp-Rev
SCIP.Stage.Inst.1Hour.0.Ccp-Rev
SCIP.Flow.Inst.1Hour.0.Ccp-Rev
SCIP.Volt-Battery Load.Inst.1Hour.0.Ccp-Rev

                            

All information presented herein is the property of the government of the United States of America and may be revised or deleted at any time without prior notice. Dissemination of this information without the expressed written consent of the Public Affairs Office, Tulsa District U.S. Army Corps of Engineers is strictly prohibited. These data are gathered electronically and, as presented, have NOT undergone any form of quality control. These data are NOT guaranteed to be valid or correct.